Time;durP1;ratioP1;P1;durP2;ratioP2;P2;SDS_P1;SDS_P2;PMS_P1;PMS_P2;Temp;Humidity;BMP_temperature;BMP_pressure;BME280_temperature;BME280_humidity;BME280_pressure;Samples;Min_cycle;Max_cycle;Signal;HPM_P1;HPM_P2
2023/01/21 00:00:11;;;;;;;10.10;1.50;;;;;;;;;;5015031;28;20108;-31
2023/01/21 00:02:38;;;;;;;10.80;2.08;;;;;;;;;;5016843;28;20037;-31
2023/01/21 00:05:06;;;;;;;17.02;2.20;;;;;;;;;;5004487;28;20053;-32
2023/01/21 00:07:33;;;;;;;13.95;1.95;;;;;;;;;;5018449;28;21474;-31
2023/01/21 00:10:00;;;;;;;17.65;2.10;;;;;;;;;;5031279;28;20054;-30
2023/01/21 00:12:27;;;;;;;11.35;2.30;;;;;;;;;;5031041;28;20025;-31
2023/01/21 00:14:54;;;;;;;12.07;2.03;;;;;;;;;;5016697;28;20030;-30
2023/01/21 00:17:21;;;;;;;7.50;1.90;;;;;;;;;;5028729;28;20529;-30
2023/01/21 00:19:48;;;;;;;10.45;1.98;;;;;;;;;;5023069;28;20038;-32
2023/01/21 00:22:15;;;;;;;13.88;2.00;;;;;;;;;;5018718;28;20029;-30
2023/01/21 00:24:42;;;;;;;16.73;1.90;;;;;;;;;;5028415;28;20088;-31
2023/01/21 00:27:09;;;;;;;8.98;1.90;;;;;;;;;;5027893;28;20029;-31
2023/01/21 00:29:36;;;;;;;9.60;2.22;;;;;;;;;;5022977;28;20030;-31
2023/01/21 00:32:03;;;;;;;13.60;2.00;;;;;;;;;;5022369;28;20044;-31
2023/01/21 00:34:31;;;;;;;20.08;2.70;;;;;;;;;;5016044;28;20091;-30
2023/01/21 00:36:58;;;;;;;12.38;2.40;;;;;;;;;;5034122;28;20124;-31
2023/01/21 00:39:25;;;;;;;13.35;2.15;;;;;;;;;;5034319;28;20535;-31
2023/01/21 00:41:52;;;;;;;9.88;2.38;;;;;;;;;;5034623;28;20372;-31
2023/01/21 00:44:19;;;;;;;12.70;2.15;;;;;;;;;;5033553;28;20506;-31
2023/01/21 00:46:46;;;;;;;10.23;2.05;;;;;;;;;;5034415;28;20357;-31
2023/01/21 00:49:13;;;;;;;5.13;1.67;;;;;;;;;;5034136;28;20037;-31
2023/01/21 00:51:40;;;;;;;4.38;1.60;;;;;;;;;;5034562;28;20032;-31
2023/01/21 00:54:07;;;;;;;6.10;1.40;;;;;;;;;;5034027;28;20116;-34
2023/01/21 00:56:34;;;;;;;5.63;1.70;;;;;;;;;;5034457;28;20511;-31
2023/01/21 00:59:02;;;;;;;3.70;1.42;;;;;;;;;;5033894;28;20045;-31
2023/01/21 01:01:33;;;;;;;3.08;1.10;;;;;;;;;;5034482;28;20057;-31
2023/01/21 01:04:00;;;;;;;5.65;1.38;;;;;;;;;;5033585;28;20071;-31
2023/01/21 01:06:27;;;;;;;6.97;1.23;;;;;;;;;;5029041;28;20018;-31
2023/01/21 01:08:57;;;;;;;11.60;1.50;;;;;;;;;;5021122;28;20026;-30
2023/01/21 01:11:25;;;;;;;8.00;1.98;;;;;;;;;;5032930;28;20044;-30
2023/01/21 01:13:53;;;;;;;9.77;1.77;;;;;;;;;;5033070;28;20072;-30
2023/01/21 01:16:21;;;;;;;12.23;1.55;;;;;;;;;;5031819;28;20045;-30
2023/01/21 01:18:51;;;;;;;5.15;1.63;;;;;;;;;;5012697;28;20030;-30
2023/01/21 01:21:19;;;;;;;12.48;1.60;;;;;;;;;;5021599;28;20037;-30
2023/01/21 01:23:46;;;;;;;6.53;1.55;;;;;;;;;;5032835;28;20072;-31
2023/01/21 01:26:15;;;;;;;6.22;1.40;;;;;;;;;;5016547;28;20682;-30
2023/01/21 01:28:42;;;;;;;4.55;1.10;;;;;;;;;;5030230;28;20024;-30
2023/01/21 01:31:11;;;;;;;3.13;1.20;;;;;;;;;;4999935;28;20038;-30
2023/01/21 01:33:38;;;;;;;2.30;0.82;;;;;;;;;;4998548;28;20042;-30
2023/01/21 01:36:07;;;;;;;5.65;1.48;;;;;;;;;;5014067;28;20484;-30
2023/01/21 01:38:34;;;;;;;3.92;0.95;;;;;;;;;;5014101;28;20395;-30
2023/01/21 01:41:01;;;;;;;6.45;1.13;;;;;;;;;;5010864;28;20034;-30
2023/01/21 01:43:48;;;;;;;4.13;1.00;;;;;;;;;;4996124;28;20061;-30
2023/01/21 01:46:15;;;;;;;3.63;1.10;;;;;;;;;;5013706;28;20087;-30
2023/01/21 01:48:47;;;;;;;3.38;1.15;;;;;;;;;;5006604;28;20459;-30
2023/01/21 01:51:16;;;;;;;2.55;0.88;;;;;;;;;;5001870;28;20377;-30
2023/01/21 01:53:45;;;;;;;4.15;0.95;;;;;;;;;;5001381;28;20033;-30
2023/01/21 01:56:12;;;;;;;1.38;0.70;;;;;;;;;;5002657;28;20029;-30
2023/01/21 01:58:40;;;;;;;1.33;1.05;;;;;;;;;;5004274;28;20136;-30
2023/01/21 02:01:07;;;;;;;2.30;0.85;;;;;;;;;;4986612;28;20508;-30
2023/01/21 02:03:45;;;;;;;2.65;1.00;;;;;;;;;;5002360;28;20026;-30
2023/01/21 02:06:13;;;;;;;2.78;1.20;;;;;;;;;;5001992;28;20034;-30
2023/01/21 02:08:40;;;;;;;4.82;1.13;;;;;;;;;;5005982;28;20038;-30
2023/01/21 02:11:11;;;;;;;3.17;1.02;;;;;;;;;;5008969;28;20380;-30
2023/01/21 02:13:38;;;;;;;6.47;1.40;;;;;;;;;;5000286;28;20041;-33
2023/01/21 02:16:11;;;;;;;13.30;1.30;;;;;;;;;;4994857;28;20045;-33
2023/01/21 02:18:41;;;;;;;8.80;1.70;;;;;;;;;;5004703;28;20038;-30
2023/01/21 02:21:08;;;;;;;5.10;1.30;;;;;;;;;;4996798;28;20031;-30
2023/01/21 02:23:53;;;;;;;3.15;0.90;;;;;;;;;;4993188;28;20124;-30
2023/01/21 02:26:23;;;;;;;3.88;1.00;;;;;;;;;;4993559;28;20461;-29
2023/01/21 02:29:07;;;;;;;5.38;1.10;;;;;;;;;;4994814;28;20033;-34
2023/01/21 02:31:54;;;;;;;8.40;1.00;;;;;;;;;;5012682;28;20069;-35
2023/01/21 02:34:44;;;;;;;8.93;1.17;;;;;;;;;;5012798;28;20041;-34
2023/01/21 02:37:13;;;;;;;16.58;1.60;;;;;;;;;;4998984;28;20038;-35
2023/01/21 02:39:58;;;;;;;4.18;1.00;;;;;;;;;;5005466;28;20145;-34
2023/01/21 02:42:46;;;;;;;6.18;1.15;;;;;;;;;;5000278;28;20056;-34
2023/01/21 02:45:36;;;;;;;4.93;0.98;;;;;;;;;;4998822;28;20488;-34
2023/01/21 02:48:07;;;;;;;8.55;1.30;;;;;;;;;;4985851;28;20575;-34
2023/01/21 02:50:50;;;;;;;9.45;1.23;;;;;;;;;;4999520;28;20567;-34
2023/01/21 02:53:23;;;;;;;3.38;1.27;;;;;;;;;;4993212;28;20026;-34
2023/01/21 02:55:50;;;;;;;8.73;1.08;;;;;;;;;;4993187;28;20038;-34
2023/01/21 02:58:19;;;;;;;4.30;1.20;;;;;;;;;;4993216;28;20056;-34
2023/01/21 03:00:58;;;;;;;3.08;1.30;;;;;;;;;;4975556;28;20030;-34
2023/01/21 03:03:25;;;;;;;12.95;1.55;;;;;;;;;;4993144;28;20031;-34
2023/01/21 03:06:01;;;;;;;8.00;1.65;;;;;;;;;;4992977;28;20504;-34
2023/01/21 03:08:32;;;;;;;11.50;1.90;;;;;;;;;;4992817;28;20061;-34
2023/01/21 03:11:08;;;;;;;19.17;2.42;;;;;;;;;;4993139;28;20110;-34
2023/01/21 03:19:21;;;;;;;1.80;1.10;;;;;;;;;;4993509;28;20049;-33
2023/01/21 03:21:49;;;;;;;4.68;1.50;;;;;;;;;;4993105;28;20110;-33
2023/01/21 03:24:16;;;;;;;2.22;1.50;;;;;;;;;;4992816;28;20035;-32
2023/01/21 03:26:45;;;;;;;3.63;1.70;;;;;;;;;;4992995;28;20113;-32
2023/01/21 03:29:18;;;;;;;2.03;1.50;;;;;;;;;;4992928;28;20033;-33
2023/01/21 03:31:47;;;;;;;3.17;1.30;;;;;;;;;;4993049;28;20046;-33
2023/01/21 03:34:16;;;;;;;4.10;1.20;;;;;;;;;;4992904;28;20037;-33
2023/01/21 03:36:47;;;;;;;2.45;1.20;;;;;;;;;;4992966;28;20042;-33
2023/01/21 03:39:18;;;;;;;2.83;1.20;;;;;;;;;;4992832;28;20039;-33
2023/01/21 03:41:46;;;;;;;2.58;1.30;;;;;;;;;;4992969;28;20105;-33
2023/01/21 03:44:13;;;;;;;2.30;1.48;;;;;;;;;;4992997;28;20454;-33
2023/01/21 03:46:47;;;;;;;5.75;1.50;;;;;;;;;;4992936;28;20027;-33
2023/01/21 03:49:20;;;;;;;3.88;1.73;;;;;;;;;;4992891;28;20026;-33
2023/01/21 03:51:50;;;;;;;4.68;1.48;;;;;;;;;;4992695;28;20109;-33
2023/01/21 03:54:17;;;;;;;7.38;1.70;;;;;;;;;;4992888;28;20473;-33
2023/01/21 03:56:44;;;;;;;11.48;1.40;;;;;;;;;;4992757;28;20022;-33
2023/01/21 03:59:11;;;;;;;3.08;1.10;;;;;;;;;;4992919;28;20509;-33
2023/01/21 04:01:39;;;;;;;8.50;1.10;;;;;;;;;;4992803;28;20489;-33
2023/01/21 04:04:06;;;;;;;4.80;1.30;;;;;;;;;;4992623;28;20039;-33
2023/01/21 04:06:34;;;;;;;3.13;0.98;;;;;;;;;;4992700;28;20113;-33
2023/01/21 04:09:01;;;;;;;5.00;1.27;;;;;;;;;;4992446;28;20066;-33
2023/01/21 04:11:28;;;;;;;6.05;1.27;;;;;;;;;;4992740;28;20037;-33
2023/01/21 04:13:55;;;;;;;7.28;1.23;;;;;;;;;;4992661;28;20022;-33
2023/01/21 04:16:22;;;;;;;3.95;1.23;;;;;;;;;;4992809;28;20388;-33
2023/01/21 04:18:49;;;;;;;5.85;1.27;;;;;;;;;;4992933;28;20030;-33
2023/01/21 04:21:16;;;;;;;4.75;1.08;;;;;;;;;;4996195;28;20034;-33
2023/01/21 04:23:43;;;;;;;4.18;0.98;;;;;;;;;;4995806;28;20026;-33
2023/01/21 04:26:10;;;;;;;5.88;1.30;;;;;;;;;;4995946;28;20065;-33
2023/01/21 04:28:37;;;;;;;2.40;0.77;;;;;;;;;;4995781;28;20022;-33
2023/01/21 04:31:04;;;;;;;2.95;0.85;;;;;;;;;;4995814;28;20557;-33
2023/01/21 04:33:31;;;;;;;6.20;1.20;;;;;;;;;;4995587;28;20069;-33
2023/01/21 04:35:58;;;;;;;3.53;0.90;;;;;;;;;;4995864;28;20023;-33
2023/01/21 04:38:26;;;;;;;5.68;1.05;;;;;;;;;;4995674;28;20421;-33
2023/01/21 04:40:53;;;;;;;5.85;0.95;;;;;;;;;;4995636;28;20025;-33
2023/01/21 04:43:20;;;;;;;6.80;1.13;;;;;;;;;;4995260;28;20030;-33
2023/01/21 04:45:48;;;;;;;7.30;1.50;;;;;;;;;;4995635;28;20027;-33
2023/01/21 04:48:16;;;;;;;7.68;1.08;;;;;;;;;;4995511;28;20042;-33
2023/01/21 04:50:43;;;;;;;8.15;1.15;;;;;;;;;;4995426;28;20112;-32
2023/01/21 04:53:10;;;;;;;6.00;0.98;;;;;;;;;;4995459;28;20033;-33
2023/01/21 04:55:37;;;;;;;4.65;1.05;;;;;;;;;;4995562;28;20389;-33
2023/01/21 04:58:04;;;;;;;6.00;0.93;;;;;;;;;;4995431;28;20041;-33
2023/01/21 05:00:31;;;;;;;2.45;0.80;;;;;;;;;;4977930;28;20037;-33
2023/01/21 05:02:58;;;;;;;4.03;0.80;;;;;;;;;;4995329;28;20096;-33
2023/01/21 05:05:25;;;;;;;6.25;0.80;;;;;;;;;;4995178;28;20064;-33
2023/01/21 05:07:53;;;;;;;4.40;1.08;;;;;;;;;;4995063;28;20081;-33
2023/01/21 05:10:20;;;;;;;6.47;1.15;;;;;;;;;;4995234;28;20489;-33
2023/01/21 05:12:47;;;;;;;3.95;0.65;;;;;;;;;;4995031;28;20042;-33
2023/01/21 05:15:14;;;;;;;8.55;1.30;;;;;;;;;;4994959;28;20042;-33
2023/01/21 05:17:41;;;;;;;5.53;1.10;;;;;;;;;;4995208;28;20026;-32
2023/01/21 05:20:08;;;;;;;5.45;1.35;;;;;;;;;;4995015;28;20034;-32
2023/01/21 05:22:35;;;;;;;2.50;0.90;;;;;;;;;;4994979;28;20033;-32
2023/01/21 05:25:03;;;;;;;4.82;1.00;;;;;;;;;;4994722;28;20520;-32
2023/01/21 05:27:29;;;;;;;4.05;0.80;;;;;;;;;;4994923;28;20026;-32
2023/01/21 05:29:57;;;;;;;5.00;0.88;;;;;;;;;;4994668;28;20033;-32
2023/01/21 05:32:23;;;;;;;3.10;1.13;;;;;;;;;;4994491;28;20046;-32
2023/01/21 05:34:50;;;;;;;5.18;1.17;;;;;;;;;;4994760;28;20034;-32
2023/01/21 05:37:17;;;;;;;4.68;1.05;;;;;;;;;;4994683;28;20022;-33
2023/01/21 05:39:44;;;;;;;1.85;0.75;;;;;;;;;;4994696;28;20030;-32
2023/01/21 05:42:11;;;;;;;6.90;1.10;;;;;;;;;;4994607;28;20026;-33
2023/01/21 05:44:38;;;;;;;3.53;1.00;;;;;;;;;;4994448;28;20029;-32
2023/01/21 05:47:07;;;;;;;6.45;1.10;;;;;;;;;;4994508;28;20046;-32
2023/01/21 05:49:35;;;;;;;5.40;1.00;;;;;;;;;;4994289;28;20392;-32
2023/01/21 05:52:02;;;;;;;7.45;0.85;;;;;;;;;;4994391;28;20117;-32
2023/01/21 05:54:29;;;;;;;4.70;1.10;;;;;;;;;;4994518;28;20026;-32
2023/01/21 05:56:56;;;;;;;4.80;0.90;;;;;;;;;;4994280;28;20031;-32
2023/01/21 05:59:22;;;;;;;2.97;0.90;;;;;;;;;;4994217;28;20018;-33
2023/01/21 06:01:49;;;;;;;6.55;1.15;;;;;;;;;;4999360;28;20041;-33
2023/01/21 06:04:17;;;;;;;5.28;0.80;;;;;;;;;;5013387;28;20037;-33
2023/01/21 06:06:43;;;;;;;2.25;0.90;;;;;;;;;;5013795;28;20087;-33
2023/01/21 06:09:10;;;;;;;3.13;0.80;;;;;;;;;;5013616;28;20064;-33
2023/01/21 06:11:37;;;;;;;3.33;0.80;;;;;;;;;;5013566;28;20136;-33
2023/01/21 06:14:04;;;;;;;3.13;1.00;;;;;;;;;;5013636;28;20026;-32
2023/01/21 06:16:31;;;;;;;4.38;0.98;;;;;;;;;;5013623;28;20033;-33
2023/01/21 06:18:58;;;;;;;1.98;1.08;;;;;;;;;;5013601;28;20037;-33
2023/01/21 06:21:25;;;;;;;3.08;1.08;;;;;;;;;;5013533;28;20080;-33
2023/01/21 06:23:52;;;;;;;3.38;1.05;;;;;;;;;;5013236;28;20476;-33
2023/01/21 06:26:19;;;;;;;1.80;1.00;;;;;;;;;;5013253;28;20527;-33
2023/01/21 06:28:46;;;;;;;2.30;1.00;;;;;;;;;;5013156;28;20040;-33
2023/01/21 06:31:13;;;;;;;4.35;1.23;;;;;;;;;;5013158;28;20117;-33
2023/01/21 06:33:40;;;;;;;2.67;0.90;;;;;;;;;;5012965;28;20100;-33
2023/01/21 06:36:07;;;;;;;3.50;0.98;;;;;;;;;;5013212;28;20105;-32
2023/01/21 06:38:35;;;;;;;6.18;0.88;;;;;;;;;;5013109;28;20053;-33
2023/01/21 06:41:02;;;;;;;2.85;0.90;;;;;;;;;;5013505;28;20432;-32
2023/01/21 06:43:29;;;;;;;3.63;0.95;;;;;;;;;;5012425;28;20021;-33
2023/01/21 06:45:56;;;;;;;4.65;1.00;;;;;;;;;;5013220;28;20026;-32
2023/01/21 06:48:23;;;;;;;3.42;1.00;;;;;;;;;;5012958;28;20033;-32
2023/01/21 06:50:50;;;;;;;3.75;1.10;;;;;;;;;;5013079;28;20033;-33
2023/01/21 06:53:17;;;;;;;2.88;1.10;;;;;;;;;;5013028;28;20029;-33
2023/01/21 06:55:46;;;;;;;2.03;0.90;;;;;;;;;;5012967;28;20373;-33
2023/01/21 06:58:13;;;;;;;4.97;1.33;;;;;;;;;;5013148;28;20033;-33
2023/01/21 07:00:41;;;;;;;4.55;1.30;;;;;;;;;;5012780;28;20165;-33
2023/01/21 07:03:08;;;;;;;2.58;1.20;;;;;;;;;;5012831;28;20037;-33
2023/01/21 07:05:35;;;;;;;5.43;1.20;;;;;;;;;;5012851;28;20400;-33
2023/01/21 07:08:02;;;;;;;2.55;1.42;;;;;;;;;;5012733;28;20029;-33
2023/01/21 07:10:29;;;;;;;3.22;1.20;;;;;;;;;;5012708;28;20032;-33
2023/01/21 07:12:56;;;;;;;2.70;1.10;;;;;;;;;;5012752;28;20481;-32
2023/01/21 07:15:23;;;;;;;3.60;1.20;;;;;;;;;;5012808;28;20030;-32
2023/01/21 07:17:52;;;;;;;3.22;1.15;;;;;;;;;;5012885;28;20108;-32
2023/01/21 07:20:21;;;;;;;4.65;1.25;;;;;;;;;;5012789;28;20061;-32
2023/01/21 07:22:48;;;;;;;3.78;1.33;;;;;;;;;;5012614;28;20503;-32
2023/01/21 07:25:15;;;;;;;3.95;1.60;;;;;;;;;;5012601;28;20026;-32
2023/01/21 07:27:42;;;;;;;3.67;1.60;;;;;;;;;;5012697;28;20383;-32
2023/01/21 07:30:14;;;;;;;6.00;1.92;;;;;;;;;;5012710;28;20440;-32
2023/01/21 07:32:41;;;;;;;4.18;2.00;;;;;;;;;;5012427;28;20500;-33
2023/01/21 07:35:08;;;;;;;4.88;2.13;;;;;;;;;;5012663;28;20030;-32
2023/01/21 07:37:35;;;;;;;7.68;2.30;;;;;;;;;;5012694;28;20022;-32
2023/01/21 07:40:03;;;;;;;6.03;1.85;;;;;;;;;;5012678;28;20432;-33
2023/01/21 07:42:30;;;;;;;4.90;2.00;;;;;;;;;;4994814;28;20034;-30
2023/01/21 07:44:58;;;;;;;8.02;2.05;;;;;;;;;;5012562;28;20026;-30
2023/01/21 07:47:25;;;;;;;5.20;2.10;;;;;;;;;;5012406;28;20493;-29
2023/01/21 07:49:52;;;;;;;3.97;1.80;;;;;;;;;;5012475;28;20018;-30
2023/01/21 07:52:19;;;;;;;6.10;2.00;;;;;;;;;;5012249;28;20511;-30
2023/01/21 07:54:47;;;;;;;5.78;1.80;;;;;;;;;;5015754;28;20026;-30
2023/01/21 07:57:14;;;;;;;3.30;1.67;;;;;;;;;;5016124;28;20025;-30
2023/01/21 07:59:41;;;;;;;4.03;2.08;;;;;;;;;;5016048;28;20030;-30
2023/01/21 08:02:09;;;;;;;8.60;2.00;;;;;;;;;;5015952;28;20389;-30
2023/01/21 08:04:36;;;;;;;9.50;1.67;;;;;;;;;;5015270;28;20040;-30
2023/01/21 08:07:07;;;;;;;8.13;2.10;;;;;;;;;;5015864;28;20030;-30
2023/01/21 08:09:36;;;;;;;9.77;1.98;;;;;;;;;;5015865;28;20037;-30
2023/01/21 08:12:04;;;;;;;8.27;1.83;;;;;;;;;;5015240;28;20068;-30
2023/01/21 08:14:31;;;;;;;11.73;1.70;;;;;;;;;;5015848;28;20551;-30
2023/01/21 08:16:58;;;;;;;7.43;1.75;;;;;;;;;;5015716;28;20030;-30
2023/01/21 08:19:25;;;;;;;8.98;1.60;;;;;;;;;;5015734;28;20140;-30
2023/01/21 08:21:52;;;;;;;9.50;1.85;;;;;;;;;;5015646;28;20053;-30
2023/01/21 08:24:19;;;;;;;9.10;1.90;;;;;;;;;;5015623;28;20029;-30
2023/01/21 08:26:47;;;;;;;5.68;1.60;;;;;;;;;;5015512;28;20071;-30
2023/01/21 08:29:15;;;;;;;5.95;1.70;;;;;;;;;;5015360;28;20400;-30
2023/01/21 08:31:42;;;;;;;4.35;1.60;;;;;;;;;;5015314;28;20441;-30
2023/01/21 08:34:09;;;;;;;8.13;1.50;;;;;;;;;;5015404;28;20037;-30
2023/01/21 08:36:37;;;;;;;5.80;1.60;;;;;;;;;;5015524;28;20018;-30
2023/01/21 08:39:05;;;;;;;4.22;1.65;;;;;;;;;;5015549;28;20038;-30
2023/01/21 08:41:32;;;;;;;7.25;1.60;;;;;;;;;;5015285;28;20503;-30
2023/01/21 08:43:59;;;;;;;6.60;1.95;;;;;;;;;;5015253;28;20030;-30
2023/01/21 08:46:26;;;;;;;5.45;1.60;;;;;;;;;;5015307;28;20050;-30
2023/01/21 08:48:53;;;;;;;6.20;1.70;;;;;;;;;;5015230;28;20073;-30
2023/01/21 08:51:20;;;;;;;8.15;1.50;;;;;;;;;;5015220;28;20026;-30
2023/01/21 08:53:48;;;;;;;4.22;1.55;;;;;;;;;;5015020;28;20030;-31
2023/01/21 08:56:15;;;;;;;8.73;1.60;;;;;;;;;;5015045;28;20026;-30
2023/01/21 08:58:43;;;;;;;7.07;1.40;;;;;;;;;;5015130;28;20033;-30
2023/01/21 09:01:11;;;;;;;7.53;1.60;;;;;;;;;;5015089;28;20022;-30
2023/01/21 09:03:38;;;;;;;9.82;1.63;;;;;;;;;;5014788;28;20032;-30
2023/01/21 09:06:06;;;;;;;5.90;1.40;;;;;;;;;;5014243;28;20026;-30
2023/01/21 09:08:35;;;;;;;8.40;1.48;;;;;;;;;;5014736;28;20030;-30
2023/01/21 09:11:02;;;;;;;6.63;1.55;;;;;;;;;;5014960;28;20498;-31
2023/01/21 09:13:33;;;;;;;7.45;1.58;;;;;;;;;;5014523;28;20085;-30
2023/01/21 09:16:01;;;;;;;5.75;1.20;;;;;;;;;;5014594;28;20032;-30
2023/01/21 09:18:28;;;;;;;6.30;1.50;;;;;;;;;;5014592;28;20395;-30
2023/01/21 09:20:59;;;;;;;7.80;1.55;;;;;;;;;;5014539;28;20392;-31
2023/01/21 09:23:27;;;;;;;5.45;1.50;;;;;;;;;;5014481;28;20369;-30
2023/01/21 09:25:55;;;;;;;4.93;1.50;;;;;;;;;;5014431;28;20034;-30
2023/01/21 09:28:23;;;;;;;1.90;1.20;;;;;;;;;;5014194;28;20104;-30
2023/01/21 09:30:50;;;;;;;4.15;1.52;;;;;;;;;;5014347;28;20029;-31
2023/01/21 09:33:17;;;;;;;5.53;1.40;;;;;;;;;;5014199;28;20054;-30
2023/01/21 09:35:44;;;;;;;3.45;1.20;;;;;;;;;;5014268;28;20101;-30
2023/01/21 09:38:11;;;;;;;5.05;1.40;;;;;;;;;;5014225;28;20030;-31
2023/01/21 09:40:43;;;;;;;3.20;1.10;;;;;;;;;;5014088;28;20064;-30
2023/01/21 09:43:10;;;;;;;;;;;;;;;;;;5014448;28;20033;-30
2023/01/21 09:45:37;;;;;;;3.33;1.40;;;;;;;;;;5014189;28;19917;-30
2023/01/21 09:48:05;;;;;;;1.65;1.00;;;;;;;;;;5014085;28;20480;-30
2023/01/21 09:50:32;;;;;;;3.88;1.50;;;;;;;;;;5014191;28;20388;-30
2023/01/21 09:53:06;;;;;;;3.63;1.30;;;;;;;;;;5013942;28;20026;-30
2023/01/21 09:55:42;;;;;;;3.30;1.20;;;;;;;;;;5014047;28;20037;-33
2023/01/21 09:58:20;;;;;;;3.22;1.30;;;;;;;;;;5014058;28;20416;-31
2023/01/21 10:00:51;;;;;;;2.72;1.08;;;;;;;;;;5013990;28;20026;-30
2023/01/21 10:03:38;;;;;;;3.15;1.40;;;;;;;;;;5013776;28;20050;-30
2023/01/21 10:06:12;;;;;;;4.45;1.30;;;;;;;;;;5013735;28;20033;-30
2023/01/21 10:08:47;;;;;;;4.50;1.50;;;;;;;;;;5013934;28;20514;-30
2023/01/21 10:11:35;;;;;;;2.92;1.20;;;;;;;;;;5013963;28;20433;-30
2023/01/21 10:14:13;;;;;;;4.35;1.38;;;;;;;;;;5013583;28;20395;-30
2023/01/21 10:17:13;;;;;;;4.40;1.45;;;;;;;;;;5012805;28;20030;-30
2023/01/21 10:19:53;;;;;;;3.08;1.10;;;;;;;;;;4960558;28;20041;-31
2023/01/21 10:22:21;;;;;;;2.67;1.20;;;;;;;;;;5013371;28;20053;-30
2023/01/21 10:24:50;;;;;;;4.20;1.10;;;;;;;;;;5013485;28;20071;-30
2023/01/21 10:27:19;;;;;;;2.17;1.00;;;;;;;;;;5013514;28;20033;-30
2023/01/21 10:29:48;;;;;;;3.13;1.40;;;;;;;;;;5013420;28;20468;-31
2023/01/21 10:32:17;;;;;;;5.90;1.25;;;;;;;;;;5013096;28;20049;-30
2023/01/21 10:34:54;;;;;;;3.53;1.30;;;;;;;;;;5013285;28;20042;-30
2023/01/21 10:37:39;;;;;;;2.55;0.95;;;;;;;;;;5013316;28;20488;-30
2023/01/21 10:40:09;;;;;;;3.63;1.08;;;;;;;;;;5013306;28;20066;-30
2023/01/21 10:42:58;;;;;;;2.80;1.38;;;;;;;;;;5013124;28;20033;-30
2023/01/21 10:45:32;;;;;;;2.78;1.25;;;;;;;;;;5012983;28;20057;-30
2023/01/21 10:48:02;;;;;;;3.90;1.30;;;;;;;;;;5013157;28;20030;-30
2023/01/21 10:50:29;;;;;;;2.50;1.05;;;;;;;;;;5013248;28;20026;-30
2023/01/21 10:53:06;;;;;;;5.28;1.15;;;;;;;;;;5013259;28;20101;-31
2023/01/21 10:55:39;;;;;;;2.53;0.90;;;;;;;;;;5013161;28;20506;-30
2023/01/21 10:58:11;;;;;;;4.60;1.30;;;;;;;;;;5012960;28;20025;-30
2023/01/21 11:00:43;;;;;;;2.78;1.20;;;;;;;;;;5013128;28;20484;-30
2023/01/21 11:03:16;;;;;;;2.63;0.98;;;;;;;;;;5013000;28;20113;-30
2023/01/21 11:05:43;;;;;;;3.08;1.08;;;;;;;;;;5012968;28;20037;-30
2023/01/21 11:08:17;;;;;;;2.67;1.10;;;;;;;;;;5012900;28;20036;-30
2023/01/21 11:10:44;;;;;;;1.90;0.93;;;;;;;;;;5012760;28;20022;-30
2023/01/21 11:13:13;;;;;;;2.42;1.00;;;;;;;;;;5012674;28;20026;-30
2023/01/21 11:15:44;;;;;;;4.25;1.48;;;;;;;;;;5012879;28;20511;-30
2023/01/21 11:18:30;;;;;;;1.67;1.00;;;;;;;;;;5012829;28;20153;-30
2023/01/21 11:21:00;;;;;;;2.10;0.90;;;;;;;;;;5012887;28;20026;-30
2023/01/21 11:23:34;;;;;;;3.58;1.23;;;;;;;;;;5012665;28;20022;-30
2023/01/21 11:26:16;;;;;;;2.33;0.95;;;;;;;;;;5012632;28;20149;-30
2023/01/21 11:28:44;;;;;;;0.98;0.70;;;;;;;;;;5014408;28;20018;-30
2023/01/21 11:31:19;;;;;;;1.60;0.85;;;;;;;;;;5016636;28;20116;-30
2023/01/21 11:33:46;;;;;;;1.83;1.02;;;;;;;;;;5016326;28;20058;-30
2023/01/21 11:36:15;;;;;;;2.08;1.00;;;;;;;;;;5016544;28;20034;-31
2023/01/21 11:38:42;;;;;;;2.00;0.93;;;;;;;;;;4999295;28;20384;-30
2023/01/21 11:41:12;;;;;;;4.30;1.02;;;;;;;;;;5016555;28;20022;-30
2023/01/21 11:43:47;;;;;;;2.00;1.00;;;;;;;;;;5016424;28;20484;-30
2023/01/21 11:46:23;;;;;;;2.85;1.02;;;;;;;;;;5016500;28;20481;-30
2023/01/21 11:48:53;;;;;;;2.83;1.00;;;;;;;;;;5016283;28;20038;-30
2023/01/21 11:51:20;;;;;;;1.50;0.80;;;;;;;;;;5016244;28;20087;-30
2023/01/21 11:53:47;;;;;;;1.75;0.80;;;;;;;;;;5016135;28;20062;-30
2023/01/21 11:56:15;;;;;;;1.95;1.08;;;;;;;;;;5016222;28;20026;-30
2023/01/21 11:58:42;;;;;;;3.25;1.10;;;;;;;;;;5016247;28;20456;-30
2023/01/21 12:01:20;;;;;;;2.05;1.02;;;;;;;;;;5016202;28;20022;-31
2023/01/21 12:03:52;;;;;;;3.53;1.00;;;;;;;;;;5015937;28;20113;-31
2023/01/21 12:06:21;;;;;;;2.63;0.93;;;;;;;;;;5016121;28;20120;-30
2023/01/21 12:08:52;;;;;;;4.35;0.98;;;;;;;;;;5016079;28;20022;-30
2023/01/21 12:11:20;;;;;;;1.48;0.80;;;;;;;;;;5015971;28;20105;-30
2023/01/21 12:13:49;;;;;;;1.50;0.90;;;;;;;;;;4998062;28;20404;-30
2023/01/21 12:16:20;;;;;;;3.28;1.10;;;;;;;;;;5015861;28;20110;-30
2023/01/21 12:18:54;;;;;;;2.20;1.30;;;;;;;;;;5015868;28;20109;-30
2023/01/21 12:21:39;;;;;;;2.85;1.20;;;;;;;;;;5015736;28;20512;-30
2023/01/21 12:24:24;;;;;;;2.45;1.05;;;;;;;;;;5015658;28;20030;-30
2023/01/21 12:26:56;;;;;;;1.70;0.98;;;;;;;;;;5015584;28;20049;-30
2023/01/21 12:29:22;;;;;;;;;;;;;;;;;;5016031;28;20365;-30
2023/01/21 12:31:53;;;;;;;1.45;1.00;;;;;;;;;;5015166;28;19909;-30
2023/01/21 12:34:20;;;;;;;2.28;1.00;;;;;;;;;;5015588;28;20040;-30
2023/01/21 12:36:50;;;;;;;2.88;1.15;;;;;;;;;;5015384;28;20100;-31
2023/01/21 12:39:20;;;;;;;2.10;0.90;;;;;;;;;;5014978;28;20026;-30
2023/01/21 12:41:51;;;;;;;3.22;1.02;;;;;;;;;;5014852;28;20792;-31
2023/01/21 12:44:30;;;;;;;2.40;0.82;;;;;;;;;;5015141;28;20033;-30
2023/01/21 12:47:00;;;;;;;3.63;1.10;;;;;;;;;;5015347;28;20030;-30
2023/01/21 12:49:33;;;;;;;1.23;1.05;;;;;;;;;;5015117;28;20128;-30
2023/01/21 12:52:04;;;;;;;2.05;0.95;;;;;;;;;;5014834;28;20033;-30
2023/01/21 12:54:42;;;;;;;3.55;0.98;;;;;;;;;;5015170;28;20088;-30
2023/01/21 12:57:15;;;;;;;2.30;0.80;;;;;;;;;;5015070;28;20037;-30
2023/01/21 12:59:44;;;;;;;2.25;1.00;;;;;;;;;;5015004;28;20053;-30
2023/01/21 13:02:29;;;;;;;3.15;1.27;;;;;;;;;;5014938;28;20502;-30
2023/01/21 13:05:05;;;;;;;2.08;1.00;;;;;;;;;;5014921;28;20150;-30
2023/01/21 13:07:52;;;;;;;2.83;1.00;;;;;;;;;;5014876;28;20540;-30
2023/01/21 13:10:19;;;;;;;1.83;1.00;;;;;;;;;;5014783;28;20034;-30
2023/01/21 13:12:52;;;;;;;2.55;0.95;;;;;;;;;;5014766;28;20033;-30
2023/01/21 13:15:18;;;;;;;;;;;;;;;;;;5015204;28;20026;-30
2023/01/21 13:17:49;;;;;;;2.17;0.95;;;;;;;;;;5014720;28;19952;-30
2023/01/21 13:20:18;;;;;;;4.47;1.00;;;;;;;;;;5014609;28;20112;-30
2023/01/21 13:22:56;;;;;;;2.85;1.10;;;;;;;;;;5014297;28;20041;-30
2023/01/21 13:25:42;;;;;;;3.20;0.85;;;;;;;;;;5014350;28;20034;-30
2023/01/21 13:28:23;;;;;;;3.58;0.88;;;;;;;;;;5014390;28;20453;-30
2023/01/21 13:30:50;;;;;;;3.50;0.80;;;;;;;;;;5014484;28;20076;-30
2023/01/21 13:33:23;;;;;;;2.22;0.90;;;;;;;;;;5014112;28;20045;-30
2023/01/21 13:35:55;;;;;;;3.28;1.10;;;;;;;;;;5014469;28;20036;-30
2023/01/21 13:38:40;;;;;;;2.13;0.90;;;;;;;;;;5014309;28;20025;-30
2023/01/21 13:41:26;;;;;;;2.25;0.90;;;;;;;;;;5014186;28;20508;-30
2023/01/21 13:43:55;;;;;;;2.97;1.40;;;;;;;;;;5014177;28;20029;-30
2023/01/21 13:46:26;;;;;;;1.92;0.90;;;;;;;;;;5014066;28;20116;-30
2023/01/21 13:49:12;;;;;;;3.00;0.93;;;;;;;;;;5013909;28;20129;-30
2023/01/21 13:51:43;;;;;;;2.45;0.95;;;;;;;;;;5013818;28;20034;-30
2023/01/21 13:54:10;;;;;;;2.25;1.20;;;;;;;;;;5013918;28;20040;-30
2023/01/21 13:57:03;;;;;;;4.10;1.20;;;;;;;;;;5013812;28;20037;-30
2023/01/21 13:59:43;;;;;;;2.10;0.98;;;;;;;;;;5013956;28;20374;-30
2023/01/21 14:02:14;;;;;;;2.15;0.90;;;;;;;;;;5013899;28;20029;-30
2023/01/21 14:05:00;;;;;;;1.63;0.98;;;;;;;;;;5013930;28;20040;-30
2023/01/21 14:07:36;;;;;;;1.73;1.00;;;;;;;;;;5013712;28;20030;-30
2023/01/21 14:10:13;;;;;;;2.97;1.10;;;;;;;;;;5013770;28;20026;-30
2023/01/21 14:12:57;;;;;;;1.73;0.80;;;;;;;;;;5013484;28;20046;-30
2023/01/21 14:15:30;;;;;;;1.38;0.82;;;;;;;;;;5013687;28;20025;-30
2023/01/21 14:18:17;;;;;;;2.50;0.90;;;;;;;;;;5013399;28;20396;-30
2023/01/21 14:21:02;;;;;;;1.77;0.90;;;;;;;;;;5013284;28;20096;-30
2023/01/21 14:23:49;;;;;;;1.27;0.85;;;;;;;;;;5013298;28;20038;-30
2023/01/21 14:26:25;;;;;;;6.07;0.88;;;;;;;;;;5013352;28;20370;-30
2023/01/21 14:29:12;;;;;;;2.63;0.90;;;;;;;;;;5013471;28;20034;-30
2023/01/21 14:31:48;;;;;;;1.60;0.82;;;;;;;;;;5013053;28;20101;-30
2023/01/21 14:34:21;;;;;;;3.25;1.00;;;;;;;;;;5013295;28;20038;-30
2023/01/21 14:36:52;;;;;;;1.45;1.00;;;;;;;;;;5013326;28;20148;-30
2023/01/21 14:39:35;;;;;;;1.00;0.90;;;;;;;;;;5013416;28;20037;-30
2023/01/21 14:42:02;;;;;;;3.97;1.10;;;;;;;;;;5013203;28;20476;-31
2023/01/21 14:44:36;;;;;;;3.00;0.80;;;;;;;;;;5012993;28;20109;-31
2023/01/21 14:47:17;;;;;;;3.80;1.08;;;;;;;;;;5013065;28;20172;-30
2023/01/21 14:49:49;;;;;;;5.65;1.40;;;;;;;;;;5013016;28;20038;-30
2023/01/21 14:52:17;;;;;;;3.53;1.08;;;;;;;;;;5012912;28;20029;-30
2023/01/21 14:54:45;;;;;;;4.32;0.80;;;;;;;;;;5012862;28;20030;-30
2023/01/21 14:57:21;;;;;;;2.83;1.10;;;;;;;;;;5013055;28;20388;-31
2023/01/21 14:59:49;;;;;;;1.60;0.90;;;;;;;;;;5012979;28;20022;-31
2023/01/21 15:02:33;;;;;;;4.25;0.80;;;;;;;;;;5012844;28;20395;-30
2023/01/21 15:05:00;;;;;;;1.63;1.00;;;;;;;;;;5012807;28;20029;-31
2023/01/21 15:07:34;;;;;;;1.52;0.80;;;;;;;;;;5012652;28;20029;-30